sensor_id;sensor_type;location;lat;lon;timestamp;P1;durP1;ratioP1;P2;durP2;ratioP2
10381;SDS011;11635;53.636;10.120;2022-11-25T00:00:11;26.17;;;17.60;;
10381;SDS011;11635;53.636;10.120;2022-11-25T00:02:41;25.30;;;17.93;;
10381;SDS011;11635;53.636;10.120;2022-11-25T00:05:07;22.45;;;16.10;;
10381;SDS011;11635;53.636;10.120;2022-11-25T00:07:35;25.88;;;16.90;;
10381;SDS011;11635;53.636;10.120;2022-11-25T00:10:02;25.00;;;16.88;;
10381;SDS011;11635;53.636;10.120;2022-11-25T00:12:29;23.30;;;16.27;;
10381;SDS011;11635;53.636;10.120;2022-11-25T00:14:55;22.77;;;15.80;;
10381;SDS011;11635;53.636;10.120;2022-11-25T00:17:21;25.50;;;15.38;;
10381;SDS011;11635;53.636;10.120;2022-11-25T00:19:48;26.17;;;16.23;;
10381;SDS011;11635;53.636;10.120;2022-11-25T00:22:15;22.67;;;15.00;;
10381;SDS011;11635;53.636;10.120;2022-11-25T00:24:43;25.23;;;16.10;;
10381;SDS011;11635;53.636;10.120;2022-11-25T00:27:09;22.70;;;16.00;;
10381;SDS011;11635;53.636;10.120;2022-11-25T00:29:35;25.25;;;15.25;;
10381;SDS011;11635;53.636;10.120;2022-11-25T00:32:02;23.43;;;15.73;;
10381;SDS011;11635;53.636;10.120;2022-11-25T00:34:28;22.37;;;16.00;;
10381;SDS011;11635;53.636;10.120;2022-11-25T00:36:55;21.77;;;15.27;;
10381;SDS011;11635;53.636;10.120;2022-11-25T00:39:21;21.63;;;14.93;;
10381;SDS011;11635;53.636;10.120;2022-11-25T00:41:51;27.05;;;16.10;;
10381;SDS011;11635;53.636;10.120;2022-11-25T00:44:34;19.23;;;14.18;;
10381;SDS011;11635;53.636;10.120;2022-11-25T00:47:01;18.33;;;13.90;;
10381;SDS011;11635;53.636;10.120;2022-11-25T00:49:27;24.35;;;15.48;;
10381;SDS011;11635;53.636;10.120;2022-11-25T00:51:53;28.23;;;17.52;;
10381;SDS011;11635;53.636;10.120;2022-11-25T00:54:20;24.83;;;17.15;;
10381;SDS011;11635;53.636;10.120;2022-11-25T00:56:46;29.25;;;19.70;;
10381;SDS011;11635;53.636;10.120;2022-11-25T00:59:14;25.98;;;19.08;;
10381;SDS011;11635;53.636;10.120;2022-11-25T01:01:40;26.93;;;17.77;;
10381;SDS011;11635;53.636;10.120;2022-11-25T01:04:06;25.15;;;18.63;;
10381;SDS011;11635;53.636;10.120;2022-11-25T01:06:33;26.73;;;17.83;;
10381;SDS011;11635;53.636;10.120;2022-11-25T01:09:00;29.27;;;18.88;;
10381;SDS011;11635;53.636;10.120;2022-11-25T01:11:26;29.03;;;19.97;;
10381;SDS011;11635;53.636;10.120;2022-11-25T01:13:54;26.27;;;18.63;;
10381;SDS011;11635;53.636;10.120;2022-11-25T01:16:22;34.25;;;20.65;;
10381;SDS011;11635;53.636;10.120;2022-11-25T01:18:48;24.45;;;17.67;;
10381;SDS011;11635;53.636;10.120;2022-11-25T01:21:16;28.90;;;18.37;;
10381;SDS011;11635;53.636;10.120;2022-11-25T01:23:43;27.53;;;18.27;;
10381;SDS011;11635;53.636;10.120;2022-11-25T01:26:10;27.73;;;18.10;;
10381;SDS011;11635;53.636;10.120;2022-11-25T01:28:37;27.03;;;17.37;;
10381;SDS011;11635;53.636;10.120;2022-11-25T01:31:04;28.50;;;20.00;;
10381;SDS011;11635;53.636;10.120;2022-11-25T01:33:32;26.80;;;19.33;;
10381;SDS011;11635;53.636;10.120;2022-11-25T01:35:59;30.20;;;19.30;;
10381;SDS011;11635;53.636;10.120;2022-11-25T01:38:26;29.42;;;19.58;;
10381;SDS011;11635;53.636;10.120;2022-11-25T01:40:52;29.17;;;18.87;;
10381;SDS011;11635;53.636;10.120;2022-11-25T01:43:19;30.87;;;19.53;;
10381;SDS011;11635;53.636;10.120;2022-11-25T01:45:45;26.47;;;19.83;;
10381;SDS011;11635;53.636;10.120;2022-11-25T01:48:13;28.67;;;19.30;;
10381;SDS011;11635;53.636;10.120;2022-11-25T01:50:41;28.43;;;19.67;;
10381;SDS011;11635;53.636;10.120;2022-11-25T01:53:09;32.20;;;20.63;;
10381;SDS011;11635;53.636;10.120;2022-11-25T01:55:36;28.03;;;18.37;;
10381;SDS011;11635;53.636;10.120;2022-11-25T01:58:03;26.98;;;19.80;;
10381;SDS011;11635;53.636;10.120;2022-11-25T02:00:31;28.03;;;19.17;;
10381;SDS011;11635;53.636;10.120;2022-11-25T02:02:57;32.37;;;19.83;;
10381;SDS011;11635;53.636;10.120;2022-11-25T02:05:24;35.10;;;19.52;;
10381;SDS011;11635;53.636;10.120;2022-11-25T02:07:53;26.23;;;18.80;;
10381;SDS011;11635;53.636;10.120;2022-11-25T02:10:21;26.90;;;18.20;;
10381;SDS011;11635;53.636;10.120;2022-11-25T02:12:48;29.20;;;20.20;;
10381;SDS011;11635;53.636;10.120;2022-11-25T02:15:15;32.05;;;19.40;;
10381;SDS011;11635;53.636;10.120;2022-11-25T02:17:42;31.67;;;20.43;;
10381;SDS011;11635;53.636;10.120;2022-11-25T02:20:10;29.17;;;19.30;;
10381;SDS011;11635;53.636;10.120;2022-11-25T02:22:40;28.47;;;19.07;;
10381;SDS011;11635;53.636;10.120;2022-11-25T02:25:12;28.40;;;19.52;;
10381;SDS011;11635;53.636;10.120;2022-11-25T02:27:39;29.70;;;19.40;;
10381;SDS011;11635;53.636;10.120;2022-11-25T02:30:06;27.60;;;19.80;;
10381;SDS011;11635;53.636;10.120;2022-11-25T02:32:33;28.80;;;18.93;;
10381;SDS011;11635;53.636;10.120;2022-11-25T02:34:59;30.52;;;19.00;;
10381;SDS011;11635;53.636;10.120;2022-11-25T02:37:25;26.03;;;18.63;;
10381;SDS011;11635;53.636;10.120;2022-11-25T02:39:53;29.02;;;18.95;;
10381;SDS011;11635;53.636;10.120;2022-11-25T02:42:21;25.17;;;18.95;;
10381;SDS011;11635;53.636;10.120;2022-11-25T02:44:48;25.33;;;17.80;;
10381;SDS011;11635;53.636;10.120;2022-11-25T02:47:14;26.10;;;17.73;;
10381;SDS011;11635;53.636;10.120;2022-11-25T02:49:41;25.43;;;16.63;;
10381;SDS011;11635;53.636;10.120;2022-11-25T02:52:07;26.10;;;17.73;;
10381;SDS011;11635;53.636;10.120;2022-11-25T02:54:33;26.43;;;17.83;;
10381;SDS011;11635;53.636;10.120;2022-11-25T02:57:00;24.63;;;17.17;;
10381;SDS011;11635;53.636;10.120;2022-11-25T02:59:27;29.08;;;18.30;;
10381;SDS011;11635;53.636;10.120;2022-11-25T03:01:53;26.43;;;17.80;;
10381;SDS011;11635;53.636;10.120;2022-11-25T03:04:20;26.85;;;18.52;;
10381;SDS011;11635;53.636;10.120;2022-11-25T03:06:46;23.63;;;17.23;;
10381;SDS011;11635;53.636;10.120;2022-11-25T03:09:12;23.38;;;15.55;;
10381;SDS011;11635;53.636;10.120;2022-11-25T03:11:39;21.90;;;15.97;;
10381;SDS011;11635;53.636;10.120;2022-11-25T03:14:23;26.38;;;17.13;;
10381;SDS011;11635;53.636;10.120;2022-11-25T03:16:50;21.45;;;15.23;;
10381;SDS011;11635;53.636;10.120;2022-11-25T03:19:17;27.93;;;17.03;;
10381;SDS011;11635;53.636;10.120;2022-11-25T03:21:43;26.20;;;17.50;;
10381;SDS011;11635;53.636;10.120;2022-11-25T03:24:09;23.57;;;17.40;;
10381;SDS011;11635;53.636;10.120;2022-11-25T03:26:36;28.40;;;18.70;;
10381;SDS011;11635;53.636;10.120;2022-11-25T03:29:02;27.53;;;18.53;;
10381;SDS011;11635;53.636;10.120;2022-11-25T03:31:28;27.07;;;16.80;;
10381;SDS011;11635;53.636;10.120;2022-11-25T03:33:56;27.50;;;18.53;;
10381;SDS011;11635;53.636;10.120;2022-11-25T03:36:22;25.80;;;18.85;;
10381;SDS011;11635;53.636;10.120;2022-11-25T03:38:49;25.17;;;18.03;;
10381;SDS011;11635;53.636;10.120;2022-11-25T03:41:15;30.02;;;18.73;;
10381;SDS011;11635;53.636;10.120;2022-11-25T03:43:41;26.63;;;19.38;;
10381;SDS011;11635;53.636;10.120;2022-11-25T03:46:08;28.20;;;19.23;;
10381;SDS011;11635;53.636;10.120;2022-11-25T03:48:34;27.77;;;18.80;;
10381;SDS011;11635;53.636;10.120;2022-11-25T03:51:02;27.57;;;17.87;;
10381;SDS011;11635;53.636;10.120;2022-11-25T03:53:28;23.57;;;18.03;;
10381;SDS011;11635;53.636;10.120;2022-11-25T03:55:54;25.13;;;17.43;;
10381;SDS011;11635;53.636;10.120;2022-11-25T03:58:21;26.40;;;17.83;;
10381;SDS011;11635;53.636;10.120;2022-11-25T04:00:47;26.75;;;18.42;;
10381;SDS011;11635;53.636;10.120;2022-11-25T04:03:13;27.47;;;18.57;;
10381;SDS011;11635;53.636;10.120;2022-11-25T04:05:40;24.20;;;17.27;;
10381;SDS011;11635;53.636;10.120;2022-11-25T04:08:07;28.77;;;18.87;;
10381;SDS011;11635;53.636;10.120;2022-11-25T04:10:34;27.63;;;18.43;;
10381;SDS011;11635;53.636;10.120;2022-11-25T04:13:00;26.27;;;17.50;;
10381;SDS011;11635;53.636;10.120;2022-11-25T04:15:25;24.70;;;16.90;;
10381;SDS011;11635;53.636;10.120;2022-11-25T04:17:52;25.87;;;17.53;;
10381;SDS011;11635;53.636;10.120;2022-11-25T04:20:18;23.20;;;17.13;;
10381;SDS011;11635;53.636;10.120;2022-11-25T04:22:45;25.03;;;17.30;;
10381;SDS011;11635;53.636;10.120;2022-11-25T04:25:12;28.87;;;17.90;;
10381;SDS011;11635;53.636;10.120;2022-11-25T04:27:39;25.90;;;17.40;;
10381;SDS011;11635;53.636;10.120;2022-11-25T04:30:05;24.23;;;16.27;;
10381;SDS011;11635;53.636;10.120;2022-11-25T04:32:32;29.27;;;17.43;;
10381;SDS011;11635;53.636;10.120;2022-11-25T04:34:58;28.93;;;18.70;;
10381;SDS011;11635;53.636;10.120;2022-11-25T04:37:25;28.05;;;17.45;;
10381;SDS011;11635;53.636;10.120;2022-11-25T04:39:51;28.93;;;17.70;;
10381;SDS011;11635;53.636;10.120;2022-11-25T04:42:19;24.70;;;16.33;;
10381;SDS011;11635;53.636;10.120;2022-11-25T04:44:58;27.33;;;16.13;;
10381;SDS011;11635;53.636;10.120;2022-11-25T04:47:24;30.80;;;16.25;;
10381;SDS011;11635;53.636;10.120;2022-11-25T04:49:51;25.50;;;17.30;;
10381;SDS011;11635;53.636;10.120;2022-11-25T04:52:17;26.83;;;16.30;;
10381;SDS011;11635;53.636;10.120;2022-11-25T04:54:43;30.03;;;17.83;;
10381;SDS011;11635;53.636;10.120;2022-11-25T04:57:11;27.85;;;16.48;;
10381;SDS011;11635;53.636;10.120;2022-11-25T04:59:39;26.03;;;15.53;;
10381;SDS011;11635;53.636;10.120;2022-11-25T05:02:04;20.93;;;15.57;;
10381;SDS011;11635;53.636;10.120;2022-11-25T05:04:31;27.20;;;14.97;;
10381;SDS011;11635;53.636;10.120;2022-11-25T05:06:57;25.20;;;15.83;;
10381;SDS011;11635;53.636;10.120;2022-11-25T05:09:24;26.30;;;16.30;;
10381;SDS011;11635;53.636;10.120;2022-11-25T05:11:50;25.85;;;15.10;;
10381;SDS011;11635;53.636;10.120;2022-11-25T05:14:16;25.17;;;16.63;;
10381;SDS011;11635;53.636;10.120;2022-11-25T05:16:44;24.83;;;16.45;;
10381;SDS011;11635;53.636;10.120;2022-11-25T05:19:10;22.43;;;16.50;;
10381;SDS011;11635;53.636;10.120;2022-11-25T05:21:36;24.70;;;15.48;;
10381;SDS011;11635;53.636;10.120;2022-11-25T05:24:03;24.17;;;16.10;;
10381;SDS011;11635;53.636;10.120;2022-11-25T05:26:29;23.03;;;16.47;;
10381;SDS011;11635;53.636;10.120;2022-11-25T05:28:56;24.00;;;15.77;;
10381;SDS011;11635;53.636;10.120;2022-11-25T05:31:22;23.20;;;15.27;;
10381;SDS011;11635;53.636;10.120;2022-11-25T05:33:50;27.70;;;16.67;;
10381;SDS011;11635;53.636;10.120;2022-11-25T05:36:16;27.70;;;17.07;;
10381;SDS011;11635;53.636;10.120;2022-11-25T05:38:42;28.10;;;16.57;;
10381;SDS011;11635;53.636;10.120;2022-11-25T05:41:09;23.23;;;16.00;;
10381;SDS011;11635;53.636;10.120;2022-11-25T05:43:36;22.10;;;16.03;;
10381;SDS011;11635;53.636;10.120;2022-11-25T05:46:03;22.93;;;16.07;;
10381;SDS011;11635;53.636;10.120;2022-11-25T05:48:29;23.33;;;16.13;;
10381;SDS011;11635;53.636;10.120;2022-11-25T05:50:59;31.87;;;15.87;;
10381;SDS011;11635;53.636;10.120;2022-11-25T05:53:25;23.90;;;15.73;;
10381;SDS011;11635;53.636;10.120;2022-11-25T05:55:52;24.98;;;15.65;;
10381;SDS011;11635;53.636;10.120;2022-11-25T05:58:19;23.50;;;15.47;;
10381;SDS011;11635;53.636;10.120;2022-11-25T06:00:45;25.17;;;15.17;;
10381;SDS011;11635;53.636;10.120;2022-11-25T06:03:12;28.30;;;16.27;;
10381;SDS011;11635;53.636;10.120;2022-11-25T06:05:38;26.00;;;15.80;;
10381;SDS011;11635;53.636;10.120;2022-11-25T06:08:06;22.77;;;14.17;;
10381;SDS011;11635;53.636;10.120;2022-11-25T06:10:32;25.13;;;15.93;;
10381;SDS011;11635;53.636;10.120;2022-11-25T06:12:59;23.67;;;14.07;;
10381;SDS011;11635;53.636;10.120;2022-11-25T06:15:25;24.33;;;14.53;;
10381;SDS011;11635;53.636;10.120;2022-11-25T06:17:51;25.15;;;15.50;;
10381;SDS011;11635;53.636;10.120;2022-11-25T06:20:18;22.30;;;14.33;;
10381;SDS011;11635;53.636;10.120;2022-11-25T06:22:44;20.30;;;14.20;;
10381;SDS011;11635;53.636;10.120;2022-11-25T06:25:12;19.83;;;14.23;;
10381;SDS011;11635;53.636;10.120;2022-11-25T06:27:38;23.53;;;14.30;;
10381;SDS011;11635;53.636;10.120;2022-11-25T06:30:05;21.87;;;14.57;;
10381;SDS011;11635;53.636;10.120;2022-11-25T06:32:32;18.92;;;12.25;;
10381;SDS011;11635;53.636;10.120;2022-11-25T06:34:58;21.10;;;14.77;;
10381;SDS011;11635;53.636;10.120;2022-11-25T06:37:25;25.67;;;14.57;;
10381;SDS011;11635;53.636;10.120;2022-11-25T06:39:51;21.17;;;13.30;;
10381;SDS011;11635;53.636;10.120;2022-11-25T06:42:19;22.07;;;13.57;;
10381;SDS011;11635;53.636;10.120;2022-11-25T06:44:45;23.02;;;12.95;;
10381;SDS011;11635;53.636;10.120;2022-11-25T06:47:12;20.20;;;13.17;;
10381;SDS011;11635;53.636;10.120;2022-11-25T06:49:38;18.03;;;12.13;;
10381;SDS011;11635;53.636;10.120;2022-11-25T06:52:04;17.53;;;13.40;;
10381;SDS011;11635;53.636;10.120;2022-11-25T06:54:31;19.00;;;11.87;;
10381;SDS011;11635;53.636;10.120;2022-11-25T06:56:57;18.53;;;12.10;;
10381;SDS011;11635;53.636;10.120;2022-11-25T06:59:25;16.50;;;12.23;;
10381;SDS011;11635;53.636;10.120;2022-11-25T07:01:51;21.25;;;12.38;;
10381;SDS011;11635;53.636;10.120;2022-11-25T07:04:18;18.45;;;11.63;;
10381;SDS011;11635;53.636;10.120;2022-11-25T07:06:44;20.73;;;11.70;;
10381;SDS011;11635;53.636;10.120;2022-11-25T07:09:10;20.98;;;12.30;;
10381;SDS011;11635;53.636;10.120;2022-11-25T07:11:38;18.37;;;12.53;;
10381;SDS011;11635;53.636;10.120;2022-11-25T07:14:05;18.95;;;12.02;;
10381;SDS011;11635;53.636;10.120;2022-11-25T07:16:33;18.73;;;12.35;;
10381;SDS011;11635;53.636;10.120;2022-11-25T07:19:00;23.10;;;13.63;;
10381;SDS011;11635;53.636;10.120;2022-11-25T07:21:27;19.57;;;11.60;;
10381;SDS011;11635;53.636;10.120;2022-11-25T07:23:54;19.05;;;12.50;;
10381;SDS011;11635;53.636;10.120;2022-11-25T07:26:21;19.85;;;13.13;;
10381;SDS011;11635;53.636;10.120;2022-11-25T07:28:48;19.57;;;12.20;;
10381;SDS011;11635;53.636;10.120;2022-11-25T07:31:16;16.60;;;11.53;;
10381;SDS011;11635;53.636;10.120;2022-11-25T07:33:44;18.07;;;11.97;;
10381;SDS011;11635;53.636;10.120;2022-11-25T07:36:11;18.23;;;11.90;;
10381;SDS011;11635;53.636;10.120;2022-11-25T07:38:38;17.07;;;11.07;;
10381;SDS011;11635;53.636;10.120;2022-11-25T07:41:04;16.37;;;10.63;;
10381;SDS011;11635;53.636;10.120;2022-11-25T07:43:31;20.73;;;12.77;;
10381;SDS011;11635;53.636;10.120;2022-11-25T07:46:07;21.33;;;12.17;;
10381;SDS011;11635;53.636;10.120;2022-11-25T07:48:33;18.33;;;12.33;;
10381;SDS011;11635;53.636;10.120;2022-11-25T07:51:01;19.60;;;12.10;;
10381;SDS011;11635;53.636;10.120;2022-11-25T07:53:27;20.13;;;10.37;;
10381;SDS011;11635;53.636;10.120;2022-11-25T07:55:54;18.83;;;11.33;;
10381;SDS011;11635;53.636;10.120;2022-11-25T07:58:20;16.77;;;10.43;;
10381;SDS011;11635;53.636;10.120;2022-11-25T08:00:46;15.60;;;11.60;;
10381;SDS011;11635;53.636;10.120;2022-11-25T08:03:13;18.00;;;9.90;;
10381;SDS011;11635;53.636;10.120;2022-11-25T08:05:39;19.23;;;12.33;;
10381;SDS011;11635;53.636;10.120;2022-11-25T08:08:07;16.60;;;11.23;;
10381;SDS011;11635;53.636;10.120;2022-11-25T08:10:33;16.10;;;10.60;;
10381;SDS011;11635;53.636;10.120;2022-11-25T08:12:59;17.40;;;11.48;;
10381;SDS011;11635;53.636;10.120;2022-11-25T08:15:26;19.53;;;10.63;;
10381;SDS011;11635;53.636;10.120;2022-11-25T08:17:52;16.90;;;10.77;;
10381;SDS011;11635;53.636;10.120;2022-11-25T08:20:19;13.37;;;9.87;;
10381;SDS011;11635;53.636;10.120;2022-11-25T08:22:45;20.43;;;10.17;;
10381;SDS011;11635;53.636;10.120;2022-11-25T08:25:13;17.73;;;10.63;;
10381;SDS011;11635;53.636;10.120;2022-11-25T08:27:39;17.27;;;10.80;;
10381;SDS011;11635;53.636;10.120;2022-11-25T08:30:06;15.98;;;10.27;;
10381;SDS011;11635;53.636;10.120;2022-11-25T08:32:35;15.50;;;9.20;;
10381;SDS011;11635;53.636;10.120;2022-11-25T08:35:02;14.07;;;9.47;;
10381;SDS011;11635;53.636;10.120;2022-11-25T08:37:29;16.00;;;10.13;;
10381;SDS011;11635;53.636;10.120;2022-11-25T08:39:55;15.33;;;9.73;;
10381;SDS011;11635;53.636;10.120;2022-11-25T08:42:23;16.40;;;8.87;;
10381;SDS011;11635;53.636;10.120;2022-11-25T08:44:52;15.80;;;9.47;;
10381;SDS011;11635;53.636;10.120;2022-11-25T08:47:19;17.63;;;9.23;;
10381;SDS011;11635;53.636;10.120;2022-11-25T08:49:48;17.60;;;8.90;;
10381;SDS011;11635;53.636;10.120;2022-11-25T08:52:15;17.17;;;9.83;;
10381;SDS011;11635;53.636;10.120;2022-11-25T08:54:41;15.00;;;8.70;;
10381;SDS011;11635;53.636;10.120;2022-11-25T08:57:07;15.02;;;9.10;;
10381;SDS011;11635;53.636;10.120;2022-11-25T08:59:35;14.13;;;8.40;;
10381;SDS011;11635;53.636;10.120;2022-11-25T09:02:03;13.97;;;8.87;;
10381;SDS011;11635;53.636;10.120;2022-11-25T09:04:29;19.02;;;9.25;;
10381;SDS011;11635;53.636;10.120;2022-11-25T09:06:55;14.30;;;8.70;;
10381;SDS011;11635;53.636;10.120;2022-11-25T09:09:22;17.50;;;9.80;;
10381;SDS011;11635;53.636;10.120;2022-11-25T09:11:48;18.50;;;9.10;;
10381;SDS011;11635;53.636;10.120;2022-11-25T09:14:14;14.50;;;8.63;;
10381;SDS011;11635;53.636;10.120;2022-11-25T09:16:42;15.80;;;7.75;;
10381;SDS011;11635;53.636;10.120;2022-11-25T09:19:08;12.75;;;7.97;;
10381;SDS011;11635;53.636;10.120;2022-11-25T09:21:35;15.87;;;8.90;;
10381;SDS011;11635;53.636;10.120;2022-11-25T09:24:01;14.27;;;9.50;;
10381;SDS011;11635;53.636;10.120;2022-11-25T09:26:28;12.90;;;8.30;;
10381;SDS011;11635;53.636;10.120;2022-11-25T09:28:56;11.80;;;8.23;;
10381;SDS011;11635;53.636;10.120;2022-11-25T09:31:22;22.43;;;9.17;;
10381;SDS011;11635;53.636;10.120;2022-11-25T09:33:50;10.48;;;7.47;;
10381;SDS011;11635;53.636;10.120;2022-11-25T09:36:17;9.88;;;7.75;;
10381;SDS011;11635;53.636;10.120;2022-11-25T09:38:43;11.65;;;8.88;;
10381;SDS011;11635;53.636;10.120;2022-11-25T09:41:14;14.53;;;8.57;;
10381;SDS011;11635;53.636;10.120;2022-11-25T09:44:03;12.75;;;6.80;;
10381;SDS011;11635;53.636;10.120;2022-11-25T09:46:51;14.07;;;8.90;;
10381;SDS011;11635;53.636;10.120;2022-11-25T09:49:26;16.48;;;8.40;;
10381;SDS011;11635;53.636;10.120;2022-11-25T09:51:58;13.20;;;8.00;;
10381;SDS011;11635;53.636;10.120;2022-11-25T09:54:28;17.07;;;8.00;;
10381;SDS011;11635;53.636;10.120;2022-11-25T09:56:58;17.90;;;8.43;;
10381;SDS011;11635;53.636;10.120;2022-11-25T09:59:27;11.65;;;7.45;;
10381;SDS011;11635;53.636;10.120;2022-11-25T10:01:57;13.60;;;7.63;;
10381;SDS011;11635;53.636;10.120;2022-11-25T10:04:28;12.63;;;7.63;;
10381;SDS011;11635;53.636;10.120;2022-11-25T10:06:56;12.57;;;8.10;;
10381;SDS011;11635;53.636;10.120;2022-11-25T10:09:25;11.40;;;7.32;;
10381;SDS011;11635;53.636;10.120;2022-11-25T10:11:53;10.32;;;6.53;;
10381;SDS011;11635;53.636;10.120;2022-11-25T10:14:24;14.48;;;7.05;;
10381;SDS011;11635;53.636;10.120;2022-11-25T10:16:55;14.52;;;7.60;;
10381;SDS011;11635;53.636;10.120;2022-11-25T10:19:25;14.25;;;7.28;;
10381;SDS011;11635;53.636;10.120;2022-11-25T10:21:56;13.45;;;7.38;;
10381;SDS011;11635;53.636;10.120;2022-11-25T10:24:23;14.50;;;6.78;;
10381;SDS011;11635;53.636;10.120;2022-11-25T10:26:51;14.77;;;6.63;;
10381;SDS011;11635;53.636;10.120;2022-11-25T10:29:22;12.27;;;6.55;;
10381;SDS011;11635;53.636;10.120;2022-11-25T10:31:50;14.57;;;6.97;;
10381;SDS011;11635;53.636;10.120;2022-11-25T10:34:22;12.13;;;7.43;;
10381;SDS011;11635;53.636;10.120;2022-11-25T10:36:52;13.18;;;7.63;;
10381;SDS011;11635;53.636;10.120;2022-11-25T10:39:21;13.60;;;7.50;;
10381;SDS011;11635;53.636;10.120;2022-11-25T10:41:49;12.73;;;7.07;;
10381;SDS011;11635;53.636;10.120;2022-11-25T10:44:18;9.77;;;6.82;;
10381;SDS011;11635;53.636;10.120;2022-11-25T10:46:50;17.85;;;7.15;;
10381;SDS011;11635;53.636;10.120;2022-11-25T10:49:23;14.57;;;7.50;;
10381;SDS011;11635;53.636;10.120;2022-11-25T10:51:52;14.15;;;7.60;;
10381;SDS011;11635;53.636;10.120;2022-11-25T10:54:19;13.15;;;7.30;;
10381;SDS011;11635;53.636;10.120;2022-11-25T10:56:51;14.98;;;7.18;;
10381;SDS011;11635;53.636;10.120;2022-11-25T10:59:22;14.80;;;7.28;;
10381;SDS011;11635;53.636;10.120;2022-11-25T11:01:50;14.18;;;7.43;;
10381;SDS011;11635;53.636;10.120;2022-11-25T11:04:16;11.55;;;6.75;;
10381;SDS011;11635;53.636;10.120;2022-11-25T11:06:43;16.05;;;7.30;;
10381;SDS011;11635;53.636;10.120;2022-11-25T11:11:53;13.32;;;7.07;;
10381;SDS011;11635;53.636;10.120;2022-11-25T11:14:19;19.52;;;7.68;;
10381;SDS011;11635;53.636;10.120;2022-11-25T11:16:50;12.55;;;7.10;;
10381;SDS011;11635;53.636;10.120;2022-11-25T11:19:20;15.82;;;7.95;;
10381;SDS011;11635;53.636;10.120;2022-11-25T11:21:47;13.50;;;7.32;;
10381;SDS011;11635;53.636;10.120;2022-11-25T11:24:22;12.40;;;8.13;;
10381;SDS011;11635;53.636;10.120;2022-11-25T11:26:50;15.32;;;7.47;;
10381;SDS011;11635;53.636;10.120;2022-11-25T11:29:27;12.80;;;7.45;;
10381;SDS011;11635;53.636;10.120;2022-11-25T11:31:55;15.35;;;7.70;;
10381;SDS011;11635;53.636;10.120;2022-11-25T11:34:28;15.63;;;8.15;;
10381;SDS011;11635;53.636;10.120;2022-11-25T11:37:06;16.27;;;7.97;;
10381;SDS011;11635;53.636;10.120;2022-11-25T11:39:47;15.85;;;7.85;;
10381;SDS011;11635;53.636;10.120;2022-11-25T11:42:17;18.02;;;8.05;;
10381;SDS011;11635;53.636;10.120;2022-11-25T11:44:50;15.38;;;8.15;;
10381;SDS011;11635;53.636;10.120;2022-11-25T11:47:23;14.68;;;8.25;;
10381;SDS011;11635;53.636;10.120;2022-11-25T11:49:59;14.23;;;7.85;;
10381;SDS011;11635;53.636;10.120;2022-11-25T11:52:28;18.75;;;8.13;;
10381;SDS011;11635;53.636;10.120;2022-11-25T11:54:57;12.18;;;7.40;;
10381;SDS011;11635;53.636;10.120;2022-11-25T11:57:27;14.73;;;7.32;;
10381;SDS011;11635;53.636;10.120;2022-11-25T11:59:59;11.30;;;7.82;;
10381;SDS011;11635;53.636;10.120;2022-11-25T12:02:30;12.15;;;7.20;;
10381;SDS011;11635;53.636;10.120;2022-11-25T12:05:01;16.90;;;7.90;;
10381;SDS011;11635;53.636;10.120;2022-11-25T12:07:31;18.65;;;7.90;;
10381;SDS011;11635;53.636;10.120;2022-11-25T12:10:00;15.25;;;7.40;;
10381;SDS011;11635;53.636;10.120;2022-11-25T12:12:28;13.10;;;6.78;;
10381;SDS011;11635;53.636;10.120;2022-11-25T12:15:01;12.93;;;7.15;;
10381;SDS011;11635;53.636;10.120;2022-11-25T12:17:31;13.23;;;7.40;;
10381;SDS011;11635;53.636;10.120;2022-11-25T12:20:00;12.35;;;8.13;;
10381;SDS011;11635;53.636;10.120;2022-11-25T12:22:29;15.75;;;7.68;;
10381;SDS011;11635;53.636;10.120;2022-11-25T12:25:00;13.73;;;7.70;;
10381;SDS011;11635;53.636;10.120;2022-11-25T12:27:30;17.30;;;8.30;;
10381;SDS011;11635;53.636;10.120;2022-11-25T12:30:02;11.07;;;7.38;;
10381;SDS011;11635;53.636;10.120;2022-11-25T12:32:34;12.82;;;7.38;;
10381;SDS011;11635;53.636;10.120;2022-11-25T12:35:12;12.90;;;6.95;;
10381;SDS011;11635;53.636;10.120;2022-11-25T12:37:43;17.50;;;7.72;;
10381;SDS011;11635;53.636;10.120;2022-11-25T12:40:11;16.67;;;7.53;;
10381;SDS011;11635;53.636;10.120;2022-11-25T12:42:39;12.10;;;7.43;;
10381;SDS011;11635;53.636;10.120;2022-11-25T12:45:10;15.65;;;7.25;;
10381;SDS011;11635;53.636;10.120;2022-11-25T12:47:37;12.68;;;6.97;;
10381;SDS011;11635;53.636;10.120;2022-11-25T12:50:04;13.10;;;7.40;;
10381;SDS011;11635;53.636;10.120;2022-11-25T12:52:37;16.88;;;7.75;;
10381;SDS011;11635;53.636;10.120;2022-11-25T12:55:11;17.23;;;7.60;;
10381;SDS011;11635;53.636;10.120;2022-11-25T13:00:21;16.05;;;8.25;;
10381;SDS011;11635;53.636;10.120;2022-11-25T13:02:58;12.50;;;8.10;;
10381;SDS011;11635;53.636;10.120;2022-11-25T13:05:40;12.57;;;7.93;;
10381;SDS011;11635;53.636;10.120;2022-11-25T13:08:14;16.58;;;8.27;;
10381;SDS011;11635;53.636;10.120;2022-11-25T13:10:52;14.10;;;6.97;;
10381;SDS011;11635;53.636;10.120;2022-11-25T13:13:29;12.85;;;7.20;;
10381;SDS011;11635;53.636;10.120;2022-11-25T13:15:59;14.27;;;7.78;;
10381;SDS011;11635;53.636;10.120;2022-11-25T13:18:27;18.55;;;8.65;;
10381;SDS011;11635;53.636;10.120;2022-11-25T13:20:55;16.92;;;7.93;;
10381;SDS011;11635;53.636;10.120;2022-11-25T13:23:23;17.27;;;8.05;;
10381;SDS011;11635;53.636;10.120;2022-11-25T13:25:50;16.50;;;8.00;;
10381;SDS011;11635;53.636;10.120;2022-11-25T13:31:19;16.30;;;7.95;;
10381;SDS011;11635;53.636;10.120;2022-11-25T13:34:05;14.77;;;8.20;;
10381;SDS011;11635;53.636;10.120;2022-11-25T13:36:45;13.68;;;7.50;;
10381;SDS011;11635;53.636;10.120;2022-11-25T13:39:12;18.98;;;8.07;;
10381;SDS011;11635;53.636;10.120;2022-11-25T13:41:49;16.02;;;8.63;;
10381;SDS011;11635;53.636;10.120;2022-11-25T13:44:24;17.23;;;7.93;;
10381;SDS011;11635;53.636;10.120;2022-11-25T13:46:54;17.95;;;8.70;;
10381;SDS011;11635;53.636;10.120;2022-11-25T13:49:24;16.90;;;8.02;;
10381;SDS011;11635;53.636;10.120;2022-11-25T13:51:53;14.50;;;8.15;;
10381;SDS011;11635;53.636;10.120;2022-11-25T13:54:22;14.38;;;7.47;;
10381;SDS011;11635;53.636;10.120;2022-11-25T13:59:35;12.02;;;8.05;;
10381;SDS011;11635;53.636;10.120;2022-11-25T14:04:48;18.90;;;8.70;;
10381;SDS011;11635;53.636;10.120;2022-11-25T14:07:20;14.05;;;7.85;;
10381;SDS011;11635;53.636;10.120;2022-11-25T14:09:55;17.58;;;7.88;;
10381;SDS011;11635;53.636;10.120;2022-11-25T14:12:33;14.63;;;7.28;;
10381;SDS011;11635;53.636;10.120;2022-11-25T14:15:13;14.43;;;7.78;;
10381;SDS011;11635;53.636;10.120;2022-11-25T14:17:47;12.68;;;6.53;;
10381;SDS011;11635;53.636;10.120;2022-11-25T14:20:27;14.75;;;7.40;;
10381;SDS011;11635;53.636;10.120;2022-11-25T14:23:01;12.02;;;7.15;;
10381;SDS011;11635;53.636;10.120;2022-11-25T14:25:32;19.08;;;7.43;;
10381;SDS011;11635;53.636;10.120;2022-11-25T14:28:09;15.85;;;7.97;;
10381;SDS011;11635;53.636;10.120;2022-11-25T14:30:42;16.00;;;8.70;;
10381;SDS011;11635;53.636;10.120;2022-11-25T14:33:09;13.65;;;8.63;;